Time;durP1;ratioP1;P1;durP2;ratioP2;P2;SDS_P1;SDS_P2;PMS_P1;PMS_P2;Temp;Humidity;BMP_temperature;BMP_pressure;BME280_temperature;BME280_humidity;BME280_pressure;Samples;Min_cycle;Max_cycle;Signal;HPM_P1;HPM_P2
2022/05/09 00:01:14;;;;;;;16.10;9.00;;;;;;;9.26;100.00;101339.41;1805457;79;21041;-62
2022/05/09 00:03:44;;;;;;;15.43;9.18;;;;;;;9.19;100.00;101336.16;1805378;79;21025;-61
2022/05/09 00:06:11;;;;;;;20.25;9.43;;;;;;;9.18;100.00;101337.48;1772188;79;21022;-61
2022/05/09 00:08:42;;;;;;;15.08;8.60;;;;;;;9.21;100.00;101336.97;1772422;79;21066;-61
2022/05/09 00:11:11;;;;;;;21.30;8.25;;;;;;;9.08;100.00;101338.14;1805295;79;21042;-62
2022/05/09 00:13:40;;;;;;;17.52;9.60;;;;;;;9.06;100.00;101336.50;1805248;79;21570;-62
2022/05/09 00:16:08;;;;;;;14.05;7.87;;;;;;;8.99;100.00;101335.37;1805598;79;21038;-62
2022/05/09 00:18:36;;;;;;;17.37;7.87;;;;;;;8.96;100.00;101332.02;1805205;79;21031;-62
2022/05/09 00:21:04;;;;;;;19.70;8.33;;;;;;;8.87;100.00;101325.39;1805511;79;21006;-62
2022/05/09 00:23:32;;;;;;;17.48;9.10;;;;;;;8.83;100.00;101325.90;1828125;78;21052;-62
2022/05/09 00:26:01;;;;;;;19.17;9.13;;;;;;;8.76;100.00;101319.69;1856654;77;20999;-62
2022/05/09 00:28:29;;;;;;;16.73;8.80;;;;;;;8.71;100.00;101317.65;1857139;77;21558;-62
2022/05/09 00:30:58;;;;;;;16.65;8.80;;;;;;;8.73;100.00;101309.47;1857202;77;21525;-62
2022/05/09 00:33:25;;;;;;;15.65;9.23;;;;;;;8.83;100.00;101320.77;1856650;77;21011;-63
2022/05/09 00:35:53;;;;;;;15.03;8.35;;;;;;;8.78;100.00;101317.48;1856584;77;21038;-62
2022/05/09 00:38:21;;;;;;;14.78;8.23;;;;;;;8.74;100.00;101307.30;1857743;77;20976;-62
2022/05/09 00:43:38;;;;;;;15.80;8.30;;;;;;;8.72;100.00;101308.64;1859938;77;21003;-61
2022/05/09 00:46:05;;;;;;;16.35;7.50;;;;;;;8.64;100.00;101311.83;1860138;77;21046;-62
2022/05/09 00:48:33;;;;;;;14.90;8.13;;;;;;;8.62;100.00;101299.02;1860202;77;21002;-61
2022/05/09 00:51:02;;;;;;;16.15;7.78;;;;;;;8.72;100.00;101298.78;1860123;77;21471;-62
2022/05/09 00:53:32;;;;;;;16.05;8.03;;;;;;;8.72;100.00;101297.50;1860368;77;20982;-62
2022/05/09 00:56:05;;;;;;;13.48;7.60;;;;;;;8.72;100.00;101302.22;1860400;77;21010;-62
2022/05/09 00:58:39;;;;;;;13.80;7.85;;;;;;;8.55;100.00;101296.62;1860372;77;20995;-62
2022/05/09 01:01:08;;;;;;;;;;;;;;;8.45;100.00;101296.43;1863103;77;21463;-62
2022/05/09 01:03:52;;;;;;;11.70;7.12;;;;;;;8.39;100.00;101298.24;1860223;77;20084;-62
2022/05/09 01:06:19;;;;;;;14.25;6.87;;;;;;;8.38;100.00;101298.27;1860288;77;21006;-62
2022/05/09 01:08:46;;;;;;;11.78;6.90;;;;;;;8.34;100.00;101291.07;1860067;76;21058;-62
2022/05/09 01:11:18;;;;;;;11.43;6.67;;;;;;;8.28;100.00;101289.09;1860020;77;21042;-62
2022/05/09 01:13:50;;;;;;;13.55;6.83;;;;;;;8.25;100.00;101286.58;1860083;77;21491;-62
2022/05/09 01:16:19;;;;;;;15.25;7.25;;;;;;;8.28;100.00;101283.52;1860336;77;21014;-62
2022/05/09 01:18:48;;;;;;;12.07;7.70;;;;;;;8.37;100.00;101291.44;1859950;77;21066;-62
2022/05/09 01:21:38;;;;;;;15.18;7.65;;;;;;;8.23;100.00;101294.30;1860056;77;21007;-62
2022/05/09 01:24:16;;;;;;;15.98;8.00;;;;;;;8.34;100.00;101293.64;1860138;77;21491;-62
2022/05/09 01:26:44;;;;;;;17.17;7.67;;;;;;;8.31;100.00;101295.42;1860108;77;21038;-61
2022/05/09 01:29:19;;;;;;;16.70;7.47;;;;;;;8.28;100.00;101291.20;1859800;77;21058;-62
2022/05/09 01:31:50;;;;;;;16.67;7.47;;;;;;;8.15;100.00;101287.20;1860214;77;21006;-62
2022/05/09 01:34:18;;;;;;;13.45;7.50;;;;;;;8.10;100.00;101283.47;1820908;78;21567;-61
2022/05/09 01:36:51;;;;;;;15.70;8.28;;;;;;;8.04;100.00;101284.87;1826623;78;21052;-62
2022/05/09 01:39:18;;;;;;;14.20;7.40;;;;;;;7.99;100.00;101286.72;1824454;78;21036;-62
2022/05/09 01:41:48;;;;;;;14.55;7.62;;;;;;;7.98;100.00;101283.73;1807162;79;21058;-62
2022/05/09 01:44:18;;;;;;;17.77;8.38;;;;;;;7.97;100.00;101281.61;1807295;79;21027;-62
2022/05/09 01:49:34;;;;;;;14.35;7.85;;;;;;;7.92;100.00;101274.88;1806953;79;21476;-62
2022/05/09 01:52:06;;;;;;;19.42;7.65;;;;;;;7.95;100.00;101269.27;1807270;79;21054;-61
2022/05/09 01:54:34;;;;;;;16.00;8.28;;;;;;;7.95;100.00;101273.11;1807296;79;21032;-60
2022/05/09 01:57:03;;;;;;;19.23;7.95;;;;;;;8.02;100.00;101273.37;1807323;79;20999;-60
2022/05/09 01:59:31;;;;;;;13.75;7.10;;;;;;;7.97;100.00;101275.20;1807313;79;21011;-61
2022/05/09 02:02:03;;;;;;;17.17;7.00;;;;;;;7.79;100.00;101267.45;1807053;79;21086;-61
2022/05/09 02:04:31;;;;;;;18.67;8.30;;;;;;;7.73;100.00;101262.45;1807229;79;21520;-61
2022/05/09 02:06:58;;;;;;;12.70;7.62;;;;;;;7.78;100.00;101262.34;1806969;79;21074;-61
2022/05/09 02:09:27;;;;;;;13.22;7.12;;;;;;;7.79;100.00;101267.45;1807008;79;21083;-61
2022/05/09 02:11:54;;;;;;;13.75;7.22;;;;;;;7.81;100.00;101259.29;1807180;79;21488;-61
2022/05/09 02:14:22;;;;;;;11.70;6.95;;;;;;;7.67;100.00;101264.30;1807161;79;21548;-61
2022/05/09 02:16:49;;;;;;;14.60;7.58;;;;;;;7.65;100.00;101266.88;1807202;79;21059;-61
2022/05/09 02:19:16;;;;;;;11.65;6.67;;;;;;;7.79;100.00;101271.29;1806885;79;21055;-61
2022/05/09 02:21:46;;;;;;;14.68;7.00;;;;;;;7.82;100.00;101271.66;1807220;79;21034;-61
2022/05/09 02:24:13;;;;;;;14.23;7.08;;;;;;;7.63;100.00;101269.91;1806986;79;21074;-61
2022/05/09 02:26:40;;;;;;;16.48;7.00;;;;;;;7.56;100.00;101266.63;1807340;79;21028;-61
2022/05/09 02:29:07;;;;;;;14.83;7.40;;;;;;;7.55;100.00;101262.81;1807149;79;21055;-61
2022/05/09 02:31:34;;;;;;;12.85;6.90;;;;;;;7.53;100.00;101260.72;1807007;79;21078;-61
2022/05/09 02:34:01;;;;;;;15.48;7.75;;;;;;;7.73;100.00;101265.01;1807283;79;21046;-61
2022/05/09 02:36:29;;;;;;;16.23;7.00;;;;;;;7.69;100.00;101267.23;1807005;79;21107;-61
2022/05/09 02:38:56;;;;;;;13.88;6.83;;;;;;;7.59;100.00;101261.88;1777940;79;21067;-61
2022/05/09 02:41:23;;;;;;;15.85;7.90;;;;;;;7.75;100.00;101270.11;1807055;79;21055;-61
2022/05/09 02:43:50;;;;;;;13.93;7.30;;;;;;;7.83;100.00;101265.23;1807025;79;21492;-61
2022/05/09 02:46:17;;;;;;;18.20;7.35;;;;;;;7.63;100.00;101266.91;1807205;79;21027;-61
2022/05/09 02:48:45;;;;;;;14.38;7.50;;;;;;;7.67;100.00;101270.70;1807025;79;21040;-61
2022/05/09 02:51:13;;;;;;;14.47;7.65;;;;;;;7.69;100.00;101264.66;1807031;79;21079;-61
2022/05/09 02:53:40;;;;;;;17.67;7.80;;;;;;;7.66;100.00;101268.55;1807243;79;21063;-62
2022/05/09 02:56:07;;;;;;;20.50;6.80;;;;;;;7.69;100.00;101268.95;1777868;79;21023;-61
2022/05/09 02:58:36;;;;;;;13.25;7.00;;;;;;;7.86;100.00;101266.04;1807239;79;21071;-61
2022/05/09 03:01:04;;;;;;;13.65;6.90;;;;;;;7.74;100.00;101272.25;1806922;79;21038;-61
2022/05/09 03:06:17;;;;;;;15.35;7.45;;;;;;;7.78;100.00;101277.72;1807158;79;21051;-61
2022/05/09 03:08:45;;;;;;;21.27;7.47;;;;;;;7.82;100.00;101280.19;1806839;79;21102;-61
2022/05/09 03:11:12;;;;;;;13.72;7.55;;;;;;;8.02;100.00;101272.09;1807237;79;21032;-61
2022/05/09 03:13:40;;;;;;;14.53;8.03;;;;;;;8.06;100.00;101274.60;1806980;79;21004;-60
2022/05/09 03:16:09;;;;;;;14.15;7.35;;;;;;;8.03;100.00;101269.94;1807225;79;21082;-60
2022/05/09 03:18:37;;;;;;;16.50;7.62;;;;;;;8.13;100.00;101271.01;1806996;79;21008;-61
2022/05/09 03:21:05;;;;;;;14.90;7.75;;;;;;;8.21;100.00;101261.02;1806899;79;21007;-60
2022/05/09 03:23:33;;;;;;;20.57;8.75;;;;;;;8.29;100.00;101259.53;1778180;79;21027;-60
2022/05/09 03:26:01;;;;;;;19.10;9.00;;;;;;;8.48;100.00;101258.72;1806851;79;21019;-61
2022/05/09 03:28:30;;;;;;;25.82;10.60;;;;;;;8.34;100.00;101256.44;1807235;79;21035;-61
2022/05/09 03:30:59;;;;;;;17.92;8.85;;;;;;;8.50;100.00;101260.81;1806990;79;21869;-61
2022/05/09 03:33:27;;;;;;;16.10;8.20;;;;;;;8.56;100.00;101267.09;1807152;79;21055;-61
2022/05/09 03:35:57;;;;;;;16.17;7.97;;;;;;;8.81;100.00;101265.20;1807325;79;21052;-61
2022/05/09 03:38:24;;;;;;;16.50;7.72;;;;;;;8.98;100.00;101263.49;1807047;79;20996;-61
2022/05/09 03:40:52;;;;;;;17.50;8.15;;;;;;;8.89;100.00;101262.01;1807355;79;21019;-61
2022/05/09 03:43:19;;;;;;;16.23;8.10;;;;;;;9.00;100.00;101260.03;1806930;79;21492;-61
2022/05/09 03:45:50;;;;;;;16.62;7.60;;;;;;;9.20;100.00;101265.07;1806949;79;21036;-61
2022/05/09 03:48:17;;;;;;;16.82;7.60;;;;;;;9.39;100.00;101268.85;1807154;79;20972;-61
2022/05/09 03:50:45;;;;;;;14.55;7.20;;;;;;;9.48;100.00;101265.62;1806902;79;21035;-61
2022/05/09 03:53:12;;;;;;;20.08;8.08;;;;;;;9.71;100.00;101266.27;1807185;79;21043;-61
2022/05/09 03:55:39;;;;;;;14.73;8.30;;;;;;;9.64;100.00;101266.89;1806975;79;21520;-61
2022/05/09 03:58:07;;;;;;;18.85;7.65;;;;;;;9.77;100.00;101264.37;1806912;79;21035;-61
2022/05/09 04:00:36;;;;;;;15.30;8.35;;;;;;;10.02;100.00;101263.66;1807210;79;21023;-62
2022/05/09 04:03:05;;;;;;;15.68;7.55;;;;;;;10.07;100.00;101266.09;1806960;79;21031;-61
2022/05/09 04:05:35;;;;;;;11.53;6.70;;;;;;;10.20;100.00;101268.25;1807053;79;21138;-61
2022/05/09 04:08:08;;;;;;;17.32;6.40;;;;;;;10.35;100.00;101259.70;1806827;79;21027;-61
2022/05/09 04:10:38;;;;;;;18.50;5.72;;;;;;;10.52;100.00;101265.17;1807266;79;21560;-61
2022/05/09 04:13:06;;;;;;;13.98;6.10;;;;;;;10.71;100.00;101264.58;1807248;79;21030;-61
2022/05/09 04:18:21;;;;;;;13.95;5.87;;;;;;;11.06;100.00;101262.56;1807156;79;21039;-61
2022/05/09 04:20:50;;;;;;;14.35;6.33;;;;;;;11.25;100.00;101262.30;1806935;79;21070;-61
2022/05/09 04:23:18;;;;;;;10.55;6.12;;;;;;;11.45;99.55;101262.06;1807137;79;21023;-61
2022/05/09 04:25:48;;;;;;;14.78;5.95;;;;;;;11.62;99.53;101258.44;1807183;79;21496;-61
2022/05/09 04:28:22;;;;;;;11.93;5.92;;;;;;;11.88;97.85;101251.03;1807104;79;20967;-62
2022/05/09 04:30:52;;;;;;;13.05;6.00;;;;;;;12.09;96.08;101255.02;1806863;79;21050;-61
2022/05/09 04:33:20;;;;;;;12.60;5.83;;;;;;;12.13;97.02;101252.25;1807134;79;20991;-61
2022/05/09 04:35:48;;;;;;;14.75;5.35;;;;;;;12.46;94.99;101251.81;1806962;79;21023;-61
2022/05/09 04:38:21;;;;;;;10.15;5.05;;;;;;;12.39;94.48;101249.11;1806907;79;21105;-62
2022/05/09 04:40:51;;;;;;;9.03;4.75;;;;;;;12.60;92.62;101253.39;1805485;79;21519;-61
2022/05/09 04:43:23;;;;;;;10.82;4.75;;;;;;;12.85;91.21;101250.25;1779354;81;21052;-62
2022/05/09 04:45:51;;;;;;;14.00;5.00;;;;;;;13.04;89.74;101248.59;1813250;79;21017;-61
2022/05/09 04:48:21;;;;;;;10.58;4.83;;;;;;;13.19;88.90;101247.91;1826966;78;21020;-62
2022/05/09 04:50:48;;;;;;;11.25;4.80;;;;;;;13.58;86.47;101243.67;1827123;78;21035;-61
2022/05/09 04:53:21;;;;;;;14.25;5.03;;;;;;;13.67;85.32;101247.15;1827185;78;21028;-62
2022/05/09 04:55:45;;;;;;;9.75;4.60;;;;;;;13.80;83.57;101245.67;1825919;78;21047;-62
2022/05/09 04:58:16;;;;;;;14.75;5.10;;;;;;;13.97;82.90;101241.45;1827508;78;21057;-62
2022/05/09 05:00:44;;;;;;;8.63;4.87;;;;;;;14.16;81.51;101240.98;1827201;78;21031;-62
2022/05/09 05:03:12;;;;;;;10.25;4.22;;;;;;;14.33;80.71;101239.34;1826946;78;20993;-62
2022/05/09 05:05:41;;;;;;;9.98;4.53;;;;;;;14.43;80.42;101239.28;1827124;78;20996;-61
2022/05/09 05:08:09;;;;;;;11.03;4.60;;;;;;;14.52;80.20;101239.31;1826742;78;21532;-62
2022/05/09 05:10:36;;;;;;;17.25;4.92;;;;;;;14.65;79.24;101233.92;1827232;78;20984;-62
2022/05/09 05:13:03;;;;;;;10.58;4.55;;;;;;;14.78;79.87;101235.44;1827301;78;21502;-61
2022/05/09 05:15:32;;;;;;;11.15;4.70;;;;;;;14.96;79.87;101229.35;1826857;78;21032;-61
2022/05/09 05:18:00;;;;;;;8.50;4.28;;;;;;;15.14;78.65;101231.89;1827584;78;21496;-62
2022/05/09 05:20:29;;;;;;;11.65;4.85;;;;;;;15.27;78.50;101225.17;1827112;77;21030;-62
2022/05/09 05:22:57;;;;;;;5.40;3.90;;;;;;;15.42;78.69;101226.11;1835638;77;21023;-62
2022/05/09 05:25:28;;;;;;;9.98;4.30;;;;;;;15.63;76.38;101224.11;1832816;77;20971;-61
2022/05/09 05:27:55;;;;;;;11.83;4.50;;;;;;;15.81;76.98;101225.77;1836034;77;20943;-61
2022/05/09 05:30:23;;;;;;;8.33;4.53;;;;;;;15.98;76.53;101218.81;1826747;77;20987;-61
2022/05/09 05:32:51;;;;;;;13.65;4.37;;;;;;;16.22;74.65;101213.54;1822193;77;22139;-61
2022/05/09 05:35:23;;;;;;;9.30;4.20;;;;;;;16.40;72.10;101214.70;1798368;79;21513;-61
2022/05/09 05:37:51;;;;;;;8.08;4.35;;;;;;;16.54;72.69;101216.03;1800452;79;21509;-62
2022/05/09 05:40:19;;;;;;;9.65;4.10;;;;;;;16.70;71.81;101213.86;1805035;79;20978;-61
2022/05/09 05:42:47;;;;;;;10.93;4.22;;;;;;;16.90;70.70;101213.55;1801710;79;21056;-61
2022/05/09 05:45:21;;;;;;;7.83;4.12;;;;;;;17.10;67.83;101213.66;1834569;77;21493;-61
2022/05/09 05:47:50;;;;;;;9.68;4.22;;;;;;;17.45;66.52;101213.27;1828456;77;21023;-61
2022/05/09 05:50:21;;;;;;;9.15;3.87;;;;;;;17.55;64.17;101212.24;1802367;77;21500;-62
2022/05/09 05:52:48;;;;;;;7.45;3.80;;;;;;;17.70;63.49;101210.44;1841457;77;20963;-62
2022/05/09 05:55:21;;;;;;;9.30;4.20;;;;;;;17.91;66.35;101200.48;1843134;77;21007;-62
2022/05/09 05:57:49;;;;;;;6.83;4.22;;;;;;;17.98;65.86;101199.99;1821357;77;21480;-62
2022/05/09 06:00:23;;;;;;;9.40;4.00;;;;;;;18.07;62.49;101204.24;1834628;77;21035;-62
2022/05/09 06:02:50;;;;;;;11.08;3.85;;;;;;;18.35;62.13;101200.64;1807780;77;21000;-63
2022/05/09 06:05:19;;;;;;;12.23;4.15;;;;;;;18.33;63.32;101194.70;1834272;77;21062;-63
2022/05/09 06:07:50;;;;;;;9.25;4.40;;;;;;;18.38;61.98;101190.86;1854764;77;21448;-62
2022/05/09 06:10:18;;;;;;;11.38;4.35;;;;;;;18.60;61.57;101194.18;1854607;76;21614;-62
2022/05/09 06:12:45;;;;;;;11.15;4.40;;;;;;;18.43;61.69;101186.67;1854644;77;21011;-62
2022/05/09 06:15:25;;;;;;;13.18;4.15;;;;;;;18.52;61.31;101179.52;1854570;77;21018;-62
2022/05/09 06:17:53;;;;;;;12.70;4.40;;;;;;;18.71;61.17;101181.72;1854822;77;21027;-61
2022/05/09 06:20:22;;;;;;;10.53;4.30;;;;;;;18.88;60.67;101176.70;1854809;77;20999;-62
2022/05/09 06:22:50;;;;;;;11.73;4.10;;;;;;;19.11;59.99;101169.89;1850905;77;21440;-62
2022/05/09 06:25:19;;;;;;;7.85;3.80;;;;;;;19.07;59.67;101172.83;1831545;77;21314;-62
2022/05/09 06:27:48;;;;;;;9.95;4.47;;;;;;;19.30;59.04;101173.38;1842375;77;20995;-63
2022/05/09 06:30:19;;;;;;;10.72;3.98;;;;;;;19.34;60.58;101178.74;1834733;77;21008;-62
2022/05/09 06:32:47;;;;;;;8.80;4.10;;;;;;;19.59;59.43;101178.30;1820752;77;21589;-62
2022/05/09 06:35:23;;;;;;;10.23;3.90;;;;;;;19.71;58.96;101176.15;1835281;77;20996;-62
2022/05/09 06:38:00;;;;;;;9.33;3.90;;;;;;;19.99;58.03;101180.66;1786368;80;21048;-62
2022/05/09 06:40:29;;;;;;;10.08;4.20;;;;;;;20.11;57.34;101179.75;1806927;79;21046;-62
2022/05/09 06:42:58;;;;;;;11.55;4.10;;;;;;;20.06;58.37;101178.45;1805926;79;21014;-62
2022/05/09 06:45:27;;;;;;;6.00;3.70;;;;;;;20.24;56.78;101174.47;1806113;79;21514;-62
2022/05/09 06:47:56;;;;;;;9.75;4.15;;;;;;;20.32;57.26;101173.42;1805852;79;21067;-62
2022/05/09 06:50:28;;;;;;;12.37;4.10;;;;;;;20.46;57.46;101171.54;1805921;79;21070;-62
2022/05/09 06:52:58;;;;;;;10.40;3.60;;;;;;;20.68;57.34;101174.26;1779679;79;20983;-62
2022/05/09 06:55:25;;;;;;;17.70;4.10;;;;;;;20.76;56.65;101166.66;1805907;79;20999;-62
2022/05/09 06:57:55;;;;;;;11.15;4.30;;;;;;;20.99;56.18;101168.80;1806548;79;21014;-62
2022/05/09 07:00:24;;;;;;;7.15;3.98;;;;;;;21.21;55.98;101167.12;1805918;79;21070;-62
2022/05/09 07:02:52;;;;;;;13.08;3.90;;;;;;;21.34;56.63;101171.73;1806041;79;21049;-62
2022/05/09 07:05:22;;;;;;;7.90;3.80;;;;;;;21.51;56.27;101164.35;1806125;79;21011;-62
2022/05/09 07:07:50;;;;;;;8.90;4.03;;;;;;;21.52;55.21;101169.48;1805855;79;21038;-63
2022/05/09 07:10:19;;;;;;;10.23;3.98;;;;;;;21.69;55.28;101160.73;1805986;79;21561;-62
2022/05/09 07:12:50;;;;;;;9.83;4.30;;;;;;;21.90;54.32;101169.98;1806021;79;21498;-63
2022/05/09 07:15:25;;;;;;;8.20;3.83;;;;;;;21.87;55.40;101159.73;1805864;79;20983;-62
2022/05/09 07:17:53;;;;;;;9.38;3.95;;;;;;;22.13;54.17;101161.03;1805909;79;21061;-62
2022/05/09 07:20:25;;;;;;;10.72;3.83;;;;;;;22.20;55.61;101160.04;1806139;79;21053;-62
2022/05/09 07:22:55;;;;;;;8.08;4.25;;;;;;;22.18;55.10;101162.81;1806478;79;21006;-62
2022/05/09 07:25:24;;;;;;;11.57;4.03;;;;;;;22.34;53.07;101149.75;1804100;79;21493;-62
2022/05/09 07:27:54;;;;;;;10.25;4.25;;;;;;;22.58;54.67;101154.23;1796315;80;20990;-62
2022/05/09 07:30:23;;;;;;;13.15;5.20;;;;;;;22.63;52.79;101151.70;1799007;78;21067;-62
2022/05/09 07:32:52;;;;;;;12.93;5.28;;;;;;;22.71;52.66;101149.25;1806416;79;21070;-62
2022/05/09 07:35:21;;;;;;;11.28;5.25;;;;;;;22.78;51.79;101146.47;1806414;79;21529;-62
2022/05/09 07:37:48;;;;;;;15.30;5.20;;;;;;;22.97;52.92;101141.77;1806088;79;21045;-62
2022/05/09 07:40:20;;;;;;;13.38;6.80;;;;;;;22.90;52.67;101137.53;1808175;79;21065;-62
2022/05/09 07:42:49;;;;;;;15.75;7.53;;;;;;;23.07;52.40;101141.84;1814693;79;21069;-62
2022/05/09 07:45:19;;;;;;;15.43;7.53;;;;;;;23.20;50.92;101139.33;1814662;79;21038;-62
2022/05/09 07:47:47;;;;;;;16.50;7.40;;;;;;;23.32;49.21;101136.59;1812269;79;21002;-62
2022/05/09 07:50:17;;;;;;;14.68;6.62;;;;;;;23.22;50.31;101136.57;1812087;79;21034;-62
2022/05/09 07:52:46;;;;;;;16.50;6.80;;;;;;;23.15;50.78;101141.51;1812319;79;20997;-62
2022/05/09 07:55:15;;;;;;;13.13;7.17;;;;;;;23.26;49.51;101137.96;1812434;79;21017;-62
2022/05/09 07:57:43;;;;;;;15.60;6.90;;;;;;;23.50;49.88;101131.02;1834336;78;20987;-62
2022/05/09 08:00:13;;;;;;;14.28;6.72;;;;;;;23.73;49.63;101125.01;1840436;78;21045;-62
2022/05/09 08:02:41;;;;;;;15.83;6.70;;;;;;;23.73;48.85;101126.32;1845935;78;21034;-62
2022/05/09 08:05:10;;;;;;;10.72;6.08;;;;;;;23.79;48.62;101124.48;1846032;78;21025;-62
2022/05/09 08:07:39;;;;;;;10.70;5.80;;;;;;;23.85;47.73;101134.11;1844874;78;21009;-62
2022/05/09 08:10:09;;;;;;;16.07;6.87;;;;;;;24.05;46.54;101127.02;1844898;76;21033;-63
2022/05/09 08:12:37;;;;;;;16.55;6.90;;;;;;;24.07;47.31;101131.65;1845316;78;21486;-64
2022/05/09 08:15:06;;;;;;;14.83;6.95;;;;;;;24.12;46.54;101121.05;1845101;78;21577;-62
2022/05/09 08:17:33;;;;;;;18.32;8.38;;;;;;;24.35;47.84;101118.09;1845503;78;21072;-62
2022/05/09 08:20:01;;;;;;;24.77;10.53;;;;;;;24.50;46.86;101121.98;1844806;78;21029;-62
2022/05/09 08:22:31;;;;;;;25.55;10.45;;;;;;;24.52;46.62;101129.73;1845064;78;21010;-62
2022/05/09 08:24:59;;;;;;;20.15;8.90;;;;;;;24.49;47.56;101117.64;1845279;78;21013;-62
2022/05/09 08:27:28;;;;;;;19.90;8.43;;;;;;;24.62;46.95;101116.55;1845048;78;21501;-62
2022/05/09 08:30:21;;;;;;;21.60;8.73;;;;;;;24.63;45.69;101121.64;1809806;79;21697;-62
2022/05/09 08:32:50;;;;;;;19.82;9.38;;;;;;;24.51;46.34;101127.59;1792846;80;21054;-63
2022/05/09 08:35:17;;;;;;;23.60;9.03;;;;;;;24.48;45.95;101118.63;1771716;81;21047;-62
2022/05/09 08:37:44;;;;;;;22.70;9.20;;;;;;;24.71;45.11;101120.43;1771530;81;21040;-62
2022/05/09 08:40:13;;;;;;;24.92;10.28;;;;;;;24.90;45.93;101112.95;1771536;81;21087;-62
2022/05/09 08:42:46;;;;;;;19.87;8.70;;;;;;;25.08;45.20;101118.27;1771835;81;21031;-63
2022/05/09 08:45:21;;;;;;;14.65;7.03;;;;;;;25.30;45.26;101124.11;1771049;81;21024;-62
2022/05/09 08:47:56;;;;;;;15.13;8.40;;;;;;;25.23;45.20;101119.11;1770820;81;21027;-62
2022/05/09 08:51:11;;;;;;;15.38;7.87;;;;;;;25.35;44.56;101116.10;1771837;81;21035;-62
2022/05/09 08:53:43;;;;;;;16.87;6.83;;;;;;;25.41;44.79;101104.14;1771824;81;21476;-62
2022/05/09 08:56:15;;;;;;;18.65;7.45;;;;;;;25.39;44.59;101101.64;1771777;81;21048;-62
2022/05/09 08:58:57;;;;;;;18.23;7.40;;;;;;;24.90;45.36;101110.31;1771724;81;21039;-62
2022/05/09 09:01:42;;;;;;;13.05;7.50;;;;;;;25.03;45.83;101109.96;1706348;82;21064;-62
2022/05/09 09:04:23;;;;;;;12.35;7.62;;;;;;;24.87;45.32;101102.69;1798650;79;21022;-63
2022/05/09 09:07:13;;;;;;;9.93;5.85;;;;;;;24.78;46.59;101103.59;1771687;81;21119;-63
2022/05/09 09:10:16;;;;;;;15.32;6.83;;;;;;;24.68;45.79;101105.44;1707950;81;21050;-62
2022/05/09 09:13:14;;;;;;;19.90;7.67;;;;;;;24.84;46.45;101100.84;1761734;81;21026;-62
2022/05/09 09:16:03;;;;;;;12.35;6.12;;;;;;;25.05;45.55;101092.70;1733559;82;21043;-63
2022/05/09 09:19:06;;;;;;;15.20;5.80;;;;;;;25.19;46.20;101099.59;1755822;81;21502;-63
2022/05/09 09:21:57;;;;;;;9.75;5.22;;;;;;;25.10;45.76;101109.73;1757980;81;20984;-63
2022/05/09 09:24:32;;;;;;;14.60;5.80;;;;;;;25.25;46.56;101092.13;1729931;82;21069;-62
2022/05/09 09:27:14;;;;;;;14.30;5.42;;;;;;;24.59;47.03;101098.75;1777246;80;21050;-62
2022/05/09 09:29:49;;;;;;;12.40;5.33;;;;;;;24.55;48.78;101100.48;1781888;79;21011;-62
2022/05/09 09:32:20;;;;;;;11.90;5.53;;;;;;;24.68;48.91;101106.75;1826750;78;21064;-61
2022/05/09 09:35:01;;;;;;;12.58;5.17;;;;;;;24.39;49.65;101112.89;1826757;78;21038;-61
2022/05/09 09:37:53;;;;;;;16.52;5.60;;;;;;;24.37;50.07;101105.63;1826866;78;21034;-61
2022/05/09 09:40:21;;;;;;;12.93;5.80;;;;;;;24.21;49.47;101103.62;1826501;78;21026;-62
2022/05/09 09:42:56;;;;;;;12.47;5.58;;;;;;;24.05;49.40;101125.23;1826752;78;21051;-62
2022/05/09 09:45:40;;;;;;;20.97;5.92;;;;;;;24.04;49.63;101119.62;1826752;78;21022;-62
2022/05/09 09:48:13;;;;;;;20.10;6.55;;;;;;;24.07;50.51;101114.09;1826511;78;21007;-61
2022/05/09 09:51:05;;;;;;;19.98;8.28;;;;;;;23.94;49.74;101131.95;1826860;78;21100;-62
2022/05/09 09:53:50;;;;;;;23.07;11.60;;;;;;;24.12;49.75;101132.07;1826663;78;20998;-61
2022/05/09 09:56:27;;;;;;;14.00;7.12;;;;;;;23.94;49.89;101109.59;1824854;78;21062;-61
2022/05/09 09:59:11;;;;;;;13.03;5.92;;;;;;;24.19;50.10;101115.59;1826687;78;21006;-62
2022/05/09 10:01:41;;;;;;;9.63;5.87;;;;;;;24.22;48.81;101117.09;1825933;78;21062;-61
2022/05/09 10:04:16;;;;;;;13.68;6.40;;;;;;;24.22;48.69;101105.75;1826799;78;21027;-62
2022/05/09 10:07:07;;;;;;;16.52;5.55;;;;;;;24.55;50.24;101103.11;1824241;78;20991;-62
2022/05/09 10:09:43;;;;;;;11.30;5.33;;;;;;;24.92;48.62;101118.90;1826734;78;21039;-61
2022/05/09 10:12:23;;;;;;;12.03;5.65;;;;;;;24.78;48.62;101112.31;1826533;78;21089;-61
2022/05/09 10:14:52;;;;;;;16.15;6.62;;;;;;;24.58;48.71;101108.92;1826277;78;21015;-62
2022/05/09 10:17:28;;;;;;;12.60;6.20;;;;;;;24.51;49.42;101112.27;1826808;78;21535;-62
2022/05/09 10:19:57;;;;;;;12.37;5.78;;;;;;;24.88;48.85;101103.05;1826123;78;20983;-62
2022/05/09 10:25:28;;;;;;;15.88;6.08;;;;;;;24.45;51.97;101140.45;1826914;78;21050;-62
2022/05/09 10:28:15;;;;;;;16.60;5.70;;;;;;;24.64;52.55;101125.13;1826701;78;21045;-62
2022/05/09 10:30:50;;;;;;;18.73;5.22;;;;;;;24.63;53.54;101133.98;1811222;78;21507;-62
2022/05/09 10:33:38;;;;;;;17.70;6.37;;;;;;;24.15;54.47;101153.67;1811042;79;21019;-61
2022/05/09 10:36:29;;;;;;;11.08;5.25;;;;;;;23.36;55.06;101144.55;1811041;79;21038;-61
2022/05/09 10:39:20;;;;;;;10.25;4.50;;;;;;;23.72;55.04;101149.65;1810754;79;21098;-61
2022/05/09 10:41:59;;;;;;;10.50;4.35;;;;;;;23.48;54.60;101152.66;1810690;79;21106;-61
2022/05/09 10:45:20;;;;;;;6.92;4.42;;;;;;;23.12;54.69;101153.61;1811309;79;21028;-61
2022/05/09 10:48:19;;;;;;;8.43;4.03;;;;;;;23.21;55.73;101146.71;1736221;81;21507;-62
2022/05/09 10:50:51;;;;;;;6.85;4.10;;;;;;;23.62;54.92;101156.67;1728283;81;21078;-62
2022/05/09 10:53:40;;;;;;;8.95;4.37;;;;;;;23.56;54.25;101155.91;1807738;79;21003;-62
2022/05/09 10:56:15;;;;;;;6.72;3.90;;;;;;;23.30;54.17;101156.92;1813065;79;21074;-62
2022/05/09 10:59:02;;;;;;;7.08;4.50;;;;;;;22.85;53.58;101168.63;1813701;79;21499;-61
2022/05/09 11:01:56;;;;;;;7.12;4.17;;;;;;;22.67;54.67;101178.03;1813226;79;21086;-61
2022/05/09 11:04:22;;;;;;;6.22;3.90;;;;;;;22.32;55.92;101163.47;1813274;79;21448;-61
2022/05/09 11:07:29;;;;;;;6.30;4.17;;;;;;;22.40;56.23;101157.95;1813206;79;21019;-61
2022/05/09 11:10:17;;;;;;;11.20;4.33;;;;;;;22.77;54.88;101167.95;1813071;78;21427;-61
2022/05/09 11:13:08;;;;;;;8.83;4.25;;;;;;;22.74;56.03;101164.75;1813218;79;21050;-61
2022/05/09 11:15:48;;;;;;;11.25;4.03;;;;;;;22.88;56.52;101176.70;1813280;79;21039;-62
2022/05/09 11:19:07;;;;;;;8.85;4.08;;;;;;;22.84;57.37;101177.44;1813307;79;21050;-62
2022/05/09 11:21:45;;;;;;;7.53;4.50;;;;;;;22.73;58.16;101178.83;1813266;79;21058;-61
2022/05/09 11:24:39;;;;;;;7.67;4.30;;;;;;;22.85;59.22;101181.75;1813140;79;20999;-61
2022/05/09 11:27:24;;;;;;;10.35;4.17;;;;;;;22.77;60.35;101167.95;1812485;79;21515;-61
2022/05/09 11:30:22;;;;;;;8.43;4.28;;;;;;;22.58;61.37;101173.91;1821548;78;21066;-61
2022/05/09 11:33:00;;;;;;;9.35;3.85;;;;;;;22.25;61.27;101196.43;1829236;78;21026;-61
2022/05/09 11:35:34;;;;;;;6.37;4.20;;;;;;;22.24;62.02;101175.91;1815211;78;21014;-62
2022/05/09 11:38:34;;;;;;;10.05;4.30;;;;;;;22.21;63.02;101189.25;1829491;78;20986;-61
2022/05/09 11:41:15;;;;;;;12.35;4.85;;;;;;;21.76;66.75;101190.27;1829200;78;21058;-61
2022/05/09 11:44:15;;;;;;;9.55;4.90;;;;;;;21.62;68.97;101187.92;1828623;78;21511;-61
2022/05/09 11:47:21;;;;;;;7.05;4.87;;;;;;;21.45;70.69;101176.63;1829149;78;20991;-61
2022/05/09 11:50:15;;;;;;;9.33;5.08;;;;;;;21.78;72.44;101170.49;1829522;78;21535;-61
2022/05/09 11:52:44;;;;;;;8.13;4.50;;;;;;;21.49;75.73;101166.27;1829460;78;21007;-61
2022/05/09 11:55:21;;;;;;;6.40;4.35;;;;;;;21.51;78.28;101167.83;1829573;78;22124;-61
2022/05/09 11:57:55;;;;;;;8.73;4.60;;;;;;;21.76;79.27;101175.84;1829434;78;20975;-61
2022/05/09 12:00:37;;;;;;;10.43;4.17;;;;;;;22.20;75.46;101176.63;1829424;78;21459;-61